Time;durP1;ratioP1;P1;durP2;ratioP2;P2;SDS_P1;SDS_P2;PMS_P1;PMS_P2;Temp;Humidity;BMP_temperature;BMP_pressure;BME280_temperature;BME280_humidity;BME280_pressure;Samples;Min_cycle;Max_cycle;Signal;HPM_P1;HPM_P2
2023/04/05 00:01:10;;;;;;;;;;;;;;;17.36;68.52;100481.19;7402670;19;1046;-41
2023/04/05 00:03:46;;;;;;;;;;;;;;;17.23;68.77;100483.22;7403189;19;1078;-42
2023/04/05 00:06:17;;;;;;;;;;;;;;;17.17;69.01;100492.63;7403053;19;1963;-41
2023/04/05 00:08:48;;;;;;;;;;;;;;;17.14;69.35;100486.69;7399158;19;1034;-42
2023/04/05 00:11:19;;;;;;;;;;;;;;;17.19;69.19;100476.44;7398261;19;1245;-41
2023/04/05 00:13:49;;;;;;;;;;;;;;;17.25;68.70;100484.81;7400889;19;1845;-41
2023/04/05 00:16:23;;;;;;;;;;;;;;;17.28;68.60;100478.34;7398327;19;1247;-42
2023/04/05 00:18:53;;;;;;;;;;;;;;;17.23;68.19;100469.88;7398166;19;1038;-41
2023/04/05 00:21:24;;;;;;;;;;;;;;;17.14;68.74;100473.34;7398627;19;1032;-42
2023/04/05 00:23:52;;;;;;;;;;;;;;;17.07;68.82;100489.06;7396973;19;1250;-41
2023/04/05 00:26:21;;;;;;;;;;;;;;;17.01;69.06;100479.72;7401203;19;1039;-42
2023/04/05 00:28:52;;;;;;;;;;;;;;;17.09;68.62;100485.25;7397878;19;1032;-42
2023/04/05 00:31:20;;;;;;;;;;;;;;;17.08;69.07;100466.69;7397930;19;2150;-41
2023/04/05 00:33:48;;;;;;;;;;;;;;;17.02;68.65;100472.56;7397026;19;1851;-41
2023/04/05 00:36:18;;;;;;;;;;;;;;;17.02;68.56;100481.41;7397683;19;962;-42
2023/04/05 00:38:56;;;;;;;;;;;;;;;17.01;68.54;100466.38;7398061;19;1072;-41
2023/04/05 00:41:31;;;;;;;;;;;;;;;17.00;68.93;100466.50;7397900;19;962;-41
2023/04/05 00:44:02;;;;;;;;;;;;;;;17.08;68.93;100464.84;7401601;19;999;-41
2023/04/05 00:46:31;;;;;;;;;;;;;;;17.03;69.00;100460.88;7400544;19;1366;-42
2023/04/05 00:48:59;;;;;;;;;;;;;;;17.16;68.47;100464.22;7400183;19;1050;-42
2023/04/05 00:51:28;;;;;;;;;;;;;;;17.05;69.10;100451.78;7401370;19;1549;-41
2023/04/05 00:53:59;;;;;;;;;;;;;;;17.10;68.76;100448.69;7396391;19;1838;-41
2023/04/05 00:56:27;;;;;;;;;;;;;;;17.02;68.84;100462.72;7397042;19;1058;-42
2023/04/05 00:58:55;;;;;;;;;;;;;;;17.16;68.53;100450.84;7397742;19;1861;-41
2023/04/05 01:01:26;;;;;;;;;;;;;;;17.10;68.60;100465.56;7397408;19;1707;-41
2023/04/05 01:03:59;;;;;;;;;;;;;;;17.02;68.24;100457.38;7397866;19;969;-41
2023/04/05 01:06:32;;;;;;;;;;;;;;;16.95;68.94;100450.00;7397196;19;1025;-41
2023/04/05 01:09:06;;;;;;;;;;;;;;;16.96;68.67;100468.56;7396942;19;1133;-41
2023/04/05 01:11:39;;;;;;;;;;;;;;;16.93;68.65;100467.97;7404808;19;1917;-42
2023/04/05 01:14:09;;;;;;;;;;;;;;;16.99;68.42;100467.44;7402878;19;1838;-41
2023/04/05 01:16:40;;;;;;;;;;;;;;;17.07;68.41;100452.50;7404820;19;1951;-42
2023/04/05 01:19:08;;;;;;;;;;;;;;;16.99;68.15;100457.63;7404731;19;1612;-42
2023/04/05 01:21:57;;;;;;;;;;;;;;;17.01;68.39;100461.03;7408450;19;1588;-42
2023/04/05 01:24:37;;;;;;;;;;;;;;;17.02;68.72;100449.34;7402010;19;1092;-42
2023/04/05 01:27:09;;;;;;;;;;;;;;;16.92;68.83;100450.28;7403819;19;1004;-42
2023/04/05 01:29:59;;;;;;;;;;;;;;;16.90;68.79;100442.38;7403568;19;1063;-42
2023/04/05 01:32:31;;;;;;;;;;;;;;;16.89;68.98;100446.00;7404063;19;1022;-42
2023/04/05 01:35:11;;;;;;;;;;;;;;;16.88;68.88;100447.84;7400757;19;1853;-41
2023/04/05 01:38:03;;;;;;;;;;;;;;;16.86;68.98;100435.59;7404435;19;1010;-41
2023/04/05 01:40:34;;;;;;;;;;;;;;;16.96;68.66;100452.53;7404859;19;1022;-42
2023/04/05 01:43:04;;;;;;;;;;;;;;;17.00;68.92;100443.28;7404759;19;1007;-41
2023/04/05 01:45:36;;;;;;;;;;;;;;;17.45;67.54;100447.50;7407000;19;1010;-41
2023/04/05 01:48:07;;;;;;;;;;;;;;;18.39;65.26;100436.56;7403705;19;986;-42
2023/04/05 01:50:39;;;;;;;;;;;;;;;19.37;61.88;100424.75;7407575;19;962;-41
2023/04/05 01:53:15;;;;;;;;;;;;;;;19.53;61.53;100418.75;7404163;19;2088;-41
2023/04/05 01:55:53;;;;;;;;;;;;;;;19.93;60.96;100430.19;7402808;19;1032;-42
2023/04/05 01:58:25;;;;;;;;;;;;;;;19.92;60.67;100425.84;7402747;19;1243;-42
2023/04/05 02:00:58;;;;;;;;;;;;;;;19.59;61.87;100417.31;7402690;19;1112;-41
2023/04/05 02:03:39;;;;;;;;;;;;;;;19.71;61.60;100418.84;7403087;19;1050;-41
2023/04/05 02:06:07;;;;;;;;;;;;;;;19.80;61.16;100428.69;7407075;19;1320;-41
2023/04/05 02:08:37;;;;;;;;;;;;;;;19.83;61.50;100414.97;7403084;19;1042;-41
2023/04/05 02:11:13;;;;;;;;;;;;;;;19.75;61.95;100409.50;7402480;19;1133;-41
2023/04/05 02:13:41;;;;;;;;;;;;;;;19.89;61.15;100432.31;7404362;19;1844;-41
2023/04/05 02:16:14;;;;;;;;;;;;;;;19.94;61.29;100424.69;7406986;19;1819;-41
2023/04/05 02:18:49;;;;;;;;;;;;;;;19.99;61.22;100422.38;7406863;19;2200;-41
2023/04/05 02:21:18;;;;;;;;;;;;;;;20.03;60.84;100429.16;7400684;19;1954;-41
2023/04/05 02:23:46;;;;;;;;;;;;;;;20.08;60.86;100427.84;7404089;19;1882;-42
2023/04/05 02:26:17;;;;;;;;;;;;;;;20.09;61.23;100429.53;7404975;19;2048;-41
2023/04/05 02:28:46;;;;;;;;;;;;;;;20.05;60.88;100440.59;7404398;19;1043;-42
2023/04/05 02:31:18;;;;;;;;;;;;;;;20.06;60.94;100434.19;7401725;19;982;-41
2023/04/05 02:33:48;;;;;;;;;;;;;;;20.08;60.79;100442.13;7401312;19;1845;-42
2023/04/05 02:36:17;;;;;;;;;;;;;;;20.04;61.22;100430.00;7406577;19;1013;-42
2023/04/05 02:38:50;;;;;;;;;;;;;;;20.16;61.20;100444.88;7406044;19;2003;-41
2023/04/05 02:41:20;;;;;;;;;;;;;;;20.12;61.14;100434.59;7401417;19;1125;-41
2023/04/05 02:43:49;;;;;;;;;;;;;;;20.22;60.92;100446.97;7403470;19;1833;-41
2023/04/05 02:46:21;;;;;;;;;;;;;;;20.11;61.16;100439.13;7401893;19;1016;-42
2023/04/05 02:48:49;;;;;;;;;;;;;;;20.23;61.02;100448.66;7403458;19;1933;-41
2023/04/05 02:51:23;;;;;;;;;;;;;;;20.19;61.15;100439.22;7403222;19;1738;-42
2023/04/05 02:53:51;;;;;;;;;;;;;;;20.22;60.76;100444.28;7403488;19;1834;-41
2023/04/05 02:56:21;;;;;;;;;;;;;;;20.29;61.02;100438.28;7400864;19;1105;-41
2023/04/05 02:58:56;;;;;;;;;;;;;;;20.34;60.51;100438.69;7401073;19;1841;-42
2023/04/05 03:01:28;;;;;;;;;;;;;;;20.40;60.77;100448.84;7400789;19;1043;-42
2023/04/05 03:03:56;;;;;;;;;;;;;;;20.40;60.73;100448.84;7400515;19;1927;-41
2023/04/05 03:06:25;;;;;;;;;;;;;;;20.44;60.71;100450.22;7401042;19;1043;-42
2023/04/05 03:08:54;;;;;;;;;;;;;;;20.38;60.67;100453.50;7402775;19;1130;-42
2023/04/05 03:11:24;;;;;;;;;;;;;;;20.39;60.32;100448.00;7400354;19;1011;-42
2023/04/05 03:14:02;;;;;;;;;;;;;;;20.29;60.94;100446.34;7404155;19;1839;-42
2023/04/05 03:16:35;;;;;;;;;;;;;;;20.25;61.17;100438.63;7400271;19;1055;-41
2023/04/05 03:19:05;;;;;;;;;;;;;;;20.30;60.56;100445.38;7404908;19;1037;-42
2023/04/05 03:21:35;;;;;;;;;;;;;;;20.30;61.16;100440.84;7400688;19;966;-41
2023/04/05 03:24:03;;;;;;;;;;;;;;;20.33;60.58;100447.75;7403123;19;1887;-41
2023/04/05 03:26:34;;;;;;;;;;;;;;;20.38;60.79;100442.78;7400331;19;1029;-42
2023/04/05 03:29:02;;;;;;;;;;;;;;;20.27;61.33;100452.75;7404154;19;1520;-42
2023/04/05 03:31:33;;;;;;;;;;;;;;;20.33;61.29;100453.94;7399782;19;1062;-42
2023/04/05 03:34:07;;;;;;;;;;;;;;;20.33;61.15;100451.25;7400409;19;1852;-42
2023/04/05 03:36:43;;;;;;;;;;;;;;;20.33;60.73;100461.16;7400034;19;1114;-41
2023/04/05 03:39:13;;;;;;;;;;;;;;;20.44;60.73;100450.22;7399542;19;1248;-42
2023/04/05 03:41:42;;;;;;;;;;;;;;;20.44;60.42;100452.91;7399827;19;1267;-42
2023/04/05 03:44:12;;;;;;;;;;;;;;;20.36;60.88;100442.06;7399123;19;989;-41
2023/04/05 03:46:51;;;;;;;;;;;;;;;20.43;60.40;100461.94;7399293;19;1129;-42
2023/04/05 03:49:23;;;;;;;;;;;;;;;20.43;60.61;100445.81;7402925;19;1718;-41
2023/04/05 03:51:57;;;;;;;;;;;;;;;20.38;60.62;100450.81;7399582;19;1106;-41
2023/04/05 03:54:32;;;;;;;;;;;;;;;20.41;60.73;100454.06;7398126;19;1847;-42
2023/04/05 03:57:10;;;;;;;;;;;;;;;20.36;60.80;100466.25;7398970;19;1059;-42
2023/04/05 03:59:39;;;;;;;;;;;;;;;20.40;60.71;100460.41;7398945;19;1055;-41
2023/04/05 04:02:09;;;;;;;;;;;;;;;19.84;62.47;100462.28;7400673;19;1593;-41
2023/04/05 04:04:42;;;;;;;;;;;;;;;19.34;63.65;100462.59;7400876;19;1852;-42
2023/04/05 04:07:10;;;;;;;;;;;;;;;19.02;64.42;100469.13;7399031;19;939;-41
2023/04/05 04:09:38;;;;;;;;;;;;;;;18.90;65.06;100483.69;7398787;19;1713;-41
2023/04/05 04:12:08;;;;;;;;;;;;;;;18.63;65.53;100476.31;7399956;19;1841;-41
2023/04/05 04:14:36;;;;;;;;;;;;;;;18.71;64.85;100467.56;7402318;19;1846;-41
2023/04/05 04:17:06;;;;;;;;;;;;;;;19.04;64.35;100472.53;7398670;19;1033;-41
2023/04/05 04:19:40;;;;;;;;;;;;;;;19.55;62.96;100483.00;7398287;19;914;-42
2023/04/05 04:22:09;;;;;;;;;;;;;;;19.33;63.16;100479.66;7399098;19;1021;-41
2023/04/05 04:24:39;;;;;;;;;;;;;;;19.01;64.23;100486.19;7397036;19;1106;-41
2023/04/05 04:27:09;;;;;;;;;;;;;;;18.87;64.43;100483.94;7399898;19;1709;-42
2023/04/05 04:29:45;;;;;;;;;;;;;;;18.80;64.91;100486.34;7398240;19;1038;-41
2023/04/05 04:32:15;;;;;;;;;;;;;;;19.12;64.27;100481.66;7400861;19;1958;-41
2023/04/05 04:34:46;;;;;;;;;;;;;;;19.45;62.66;100481.16;7396904;19;1849;-41
2023/04/05 04:37:17;;;;;;;;;;;;;;;19.67;62.56;100488.00;7400784;19;1715;-42
2023/04/05 04:39:47;;;;;;;;;;;;;;;19.67;61.94;100488.00;7398828;19;1902;-41
2023/04/05 04:42:22;;;;;;;;;;;;;;;19.68;62.27;100476.31;7400774;19;1525;-41
2023/04/05 04:45:01;;;;;;;;;;;;;;;19.70;62.40;100486.06;7399868;19;1027;-41
2023/04/05 04:47:32;;;;;;;;;;;;;;;19.52;62.88;100483.25;7401040;19;1078;-42
2023/04/05 04:50:06;;;;;;;;;;;;;;;19.02;63.71;100487.03;7401271;19;1746;-41
2023/04/05 04:52:35;;;;;;;;;;;;;;;18.75;64.74;100493.94;7397225;19;1012;-42
2023/04/05 04:55:04;;;;;;;;;;;;;;;18.75;64.82;100501.97;7396693;19;1853;-41
2023/04/05 04:57:35;;;;;;;;;;;;;;;19.04;64.18;100475.19;7398408;19;1606;-41
2023/04/05 05:00:06;;;;;;;;;;;;;;;19.48;63.07;100499.66;7400745;19;1566;-41
2023/04/05 05:02:43;;;;;;;;;;;;;;;19.57;62.40;100486.38;7400943;19;1321;-41
2023/04/05 05:05:14;;;;;;;;;;;;;;;19.64;62.31;100492.84;7401013;19;1290;-42
2023/04/05 05:07:44;;;;;;;;;;;;;;;19.70;61.48;100480.69;7397720;19;1509;-41
2023/04/05 05:10:19;;;;;;;;;;;;;;;19.64;61.47;100474.06;7400794;19;1047;-41
2023/04/05 05:12:54;;;;;;;;;;;;;;;19.72;60.97;100484.94;7397510;19;1423;-42
2023/04/05 05:15:23;;;;;;;;;;;;;;;19.71;61.25;100483.25;7398088;19;1861;-41
2023/04/05 05:17:53;;;;;;;;;;;;;;;19.70;60.96;100481.53;7401412;19;1199;-41
2023/04/05 05:20:31;;;;;;;;;;;;;;;19.29;62.32;100488.97;7400590;19;1094;-41
2023/04/05 05:23:01;;;;;;;;;;;;;;;18.92;63.65;100492.44;7398968;19;1515;-41
2023/04/05 05:25:29;;;;;;;;;;;;;;;18.74;64.06;100484.22;7396098;19;1100;-41
2023/04/05 05:27:58;;;;;;;;;;;;;;;18.97;63.50;100487.47;7397161;19;1551;-41
2023/04/05 05:30:29;;;;;;;;;;;;;;;19.35;62.32;100469.63;7396544;19;1017;-41
2023/04/05 05:33:00;;;;;;;;;;;;;;;19.64;61.67;100490.16;7396246;19;1054;-41
2023/04/05 05:35:32;;;;;;;;;;;;;;;19.68;61.42;100487.03;7397174;19;1857;-41
2023/04/05 05:38:08;;;;;;;;;;;;;;;19.69;61.49;100490.56;7395576;19;1159;-41
2023/04/05 05:40:38;;;;;;;;;;;;;;;19.74;61.79;100504.41;7400044;19;1698;-41
2023/04/05 05:43:07;;;;;;;;;;;;;;;19.29;62.83;100497.03;7399114;19;1375;-41
2023/04/05 05:45:36;;;;;;;;;;;;;;;18.94;63.56;100489.56;7396609;19;1842;-42
2023/04/05 05:48:05;;;;;;;;;;;;;;;18.76;64.69;100494.75;7395556;19;1117;-41
2023/04/05 05:50:38;;;;;;;;;;;;;;;18.97;64.18;100500.88;7399344;19;1045;-41
2023/04/05 05:53:10;;;;;;;;;;;;;;;19.30;63.19;100490.69;7399856;19;1155;-41
2023/04/05 05:55:41;;;;;;;;;;;;;;;19.56;62.47;100479.34;7397909;19;1848;-41
2023/04/05 05:58:14;;;;;;;;;;;;;;;19.65;62.27;100495.38;7405537;19;1081;-41
2023/04/05 06:00:50;;;;;;;;;;;;;;;19.71;62.03;100507.38;7402414;19;991;-41
2023/04/05 06:03:18;;;;;;;;;;;;;;;19.69;61.68;100485.19;7402470;19;1037;-42
2023/04/05 06:05:52;;;;;;;;;;;;;;;19.69;62.06;100503.97;7402145;19;1051;-41
2023/04/05 06:08:23;;;;;;;;;;;;;;;19.72;62.10;100502.88;7405091;19;1025;-41
2023/04/05 06:10:52;;;;;;;;;;;;;;;19.36;62.97;100500.84;7402759;19;1173;-41
2023/04/05 06:13:21;;;;;;;;;;;;;;;18.99;63.90;100509.59;7406142;19;1708;-43
2023/04/05 06:15:51;;;;;;;;;;;;;;;18.77;64.55;100509.88;7403755;19;1859;-41
2023/04/05 06:18:22;;;;;;;;;;;;;;;18.92;64.36;100513.00;7405146;19;1943;-41
2023/04/05 06:20:52;;;;;;;;;;;;;;;19.30;63.49;100511.25;7401547;19;1444;-44
2023/04/05 06:23:24;;;;;;;;;;;;;;;19.55;62.60;100523.22;7404441;19;1338;-44
2023/04/05 06:25:52;;;;;;;;;;;;;;;19.55;61.75;100529.41;7403416;19;1596;-45
2023/04/05 06:28:27;;;;;;;;;;;;;;;19.60;61.22;100512.91;7403437;19;1905;-44
2023/04/05 06:30:55;;;;;;;;;;;;;;;19.64;61.24;100527.72;7404373;19;1514;-45
2023/04/05 06:33:26;;;;;;;;;;;;;;;19.75;60.96;100516.81;7406079;19;1908;-45
2023/04/05 06:35:54;;;;;;;;;;;;;;;19.65;61.53;100522.19;7403677;19;1865;-45
2023/04/05 06:38:26;;;;;;;;;;;;;;;19.19;62.62;100520.31;7405582;19;1956;-45
2023/04/05 06:40:56;;;;;;;;;;;;;;;18.90;63.60;100520.31;7405423;19;1973;-42
2023/04/05 06:43:24;;;;;;;;;;;;;;;18.73;63.93;100522.69;7404677;19;1102;-42
2023/04/05 06:46:01;;;;;;;;;;;;;;;18.81;63.37;100516.66;7400763;19;1920;-42
2023/04/05 06:48:30;;;;;;;;;;;;;;;19.32;62.06;100515.50;7401711;19;1907;-42
2023/04/05 06:51:00;;;;;;;;;;;;;;;19.59;61.00;100516.56;7400591;19;1149;-42
2023/04/05 06:53:32;;;;;;;;;;;;;;;19.17;62.22;100517.78;7405251;19;1420;-42
2023/04/05 06:56:02;;;;;;;;;;;;;;;18.89;63.41;100519.47;7402961;19;1857;-42
2023/04/05 06:58:32;;;;;;;;;;;;;;;18.72;63.84;100528.19;7404033;19;1907;-42
2023/04/05 07:01:02;;;;;;;;;;;;;;;18.88;63.07;100517.81;7400107;19;1110;-42
2023/04/05 07:03:31;;;;;;;;;;;;;;;19.32;62.25;100518.19;7404006;19;1391;-42
2023/04/05 07:06:01;;;;;;;;;;;;;;;19.59;61.45;100527.31;7404481;19;1609;-42
2023/04/05 07:08:33;;;;;;;;;;;;;;;19.65;61.52;100516.00;7402349;19;2062;-42
2023/04/05 07:11:02;;;;;;;;;;;;;;;19.53;62.34;100506.44;7402711;19;1634;-42
2023/04/05 07:13:31;;;;;;;;;;;;;;;19.08;63.54;100522.16;7403378;19;2249;-42
2023/04/05 07:16:03;;;;;;;;;;;;;;;18.72;64.38;100514.78;7402128;19;1861;-42
2023/04/05 07:18:31;;;;;;;;;;;;;;;18.82;64.25;100527.25;7403404;19;1815;-42
2023/04/05 07:21:03;;;;;;;;;;;;;;;19.15;62.98;100527.78;7402635;19;2539;-42
2023/04/05 07:23:34;;;;;;;;;;;;;;;19.48;62.29;100542.56;7402905;19;1148;-42
2023/04/05 07:26:06;;;;;;;;;;;;;;;19.70;61.33;100527.13;7399271;19;1850;-42
2023/04/05 07:28:36;;;;;;;;;;;;;;;19.72;61.33;100527.88;7401722;19;1640;-41
2023/04/05 07:31:07;;;;;;;;;;;;;;;19.75;61.44;100532.09;7403191;19;1543;-42
2023/04/05 07:33:35;;;;;;;;;;;;;;;19.71;61.24;100536.91;7402841;19;1968;-43
2023/04/05 07:36:04;;;;;;;;;;;;;;;19.70;61.68;100521.78;7401702;19;1857;-42
2023/04/05 07:38:36;;;;;;;;;;;;;;;19.70;61.68;100547.75;7402406;19;1806;-42
2023/04/05 07:41:05;;;;;;;;;;;;;;;19.70;61.71;100537.88;7402953;19;1550;-42
2023/04/05 07:43:33;;;;;;;;;;;;;;;19.78;61.94;100542.53;7400865;19;1346;-42
2023/04/05 07:46:05;;;;;;;;;;;;;;;19.82;61.52;100546.63;7401002;19;2056;-43
2023/04/05 07:48:33;;;;;;;;;;;;;;;19.77;61.92;100536.31;7400558;19;2053;-42
2023/04/05 07:51:05;;;;;;;;;;;;;;;19.73;62.26;100542.97;7401257;19;2011;-42
2023/04/05 07:53:37;;;;;;;;;;;;;;;19.40;62.69;100542.44;7402455;19;1722;-42
2023/04/05 07:56:05;;;;;;;;;;;;;;;19.03;63.63;100540.50;7399608;19;1844;-42
2023/04/05 07:58:34;;;;;;;;;;;;;;;18.77;64.35;100550.03;7401547;19;1950;-42
2023/04/05 08:01:02;;;;;;;;;;;;;;;18.80;64.48;100542.63;7400660;19;1871;-42
2023/04/05 08:03:33;;;;;;;;;;;;;;;19.22;63.47;100545.00;7400682;19;1527;-42
2023/04/05 08:06:02;;;;;;;;;;;;;;;19.64;62.19;100546.50;7400911;19;1702;-42
2023/04/05 08:08:30;;;;;;;;;;;;;;;19.19;63.87;100560.53;7399605;19;1928;-42
2023/04/05 08:11:04;;;;;;;;;;;;;;;18.91;64.60;100555.03;7401012;19;1797;-42
2023/04/05 08:13:32;;;;;;;;;;;;;;;18.81;64.69;100560.38;7400295;19;1791;-42
2023/04/05 08:16:01;;;;;;;;;;;;;;;19.03;64.28;100559.25;7399697;19;1857;-42
2023/04/05 08:18:29;;;;;;;;;;;;;;;19.53;63.35;100535.94;7401627;19;1969;-42
2023/04/05 08:20:58;;;;;;;;;;;;;;;19.34;64.03;100556.44;7399279;19;1613;-42
2023/04/05 08:23:26;;;;;;;;;;;;;;;18.94;64.73;100554.75;7398739;19;2037;-42
2023/04/05 08:25:55;;;;;;;;;;;;;;;18.71;65.40;100569.34;7400885;19;1292;-42
2023/04/05 08:28:26;;;;;;;;;;;;;;;19.05;64.98;100559.97;7399972;19;1833;-42
2023/04/05 08:30:56;;;;;;;;;;;;;;;19.43;63.86;100555.56;7398350;19;1679;-42
2023/04/05 08:33:25;;;;;;;;;;;;;;;19.62;62.79;100559.22;7400998;19;1266;-42
2023/04/05 08:35:53;;;;;;;;;;;;;;;19.22;63.59;100573.66;7399414;19;1965;-42
2023/04/05 08:38:21;;;;;;;;;;;;;;;18.89;64.65;100557.00;7400214;19;2142;-42
2023/04/05 08:40:50;;;;;;;;;;;;;;;18.73;65.06;100578.09;7400114;19;1074;-42
2023/04/05 08:43:20;;;;;;;;;;;;;;;18.94;64.20;100568.16;7400414;19;1913;-42
2023/04/05 08:45:53;;;;;;;;;;;;;;;19.54;62.91;100572.50;7401478;19;1042;-42
2023/04/05 08:48:29;;;;;;;;;;;;;;;19.66;62.45;100574.03;7401639;19;1909;-42
2023/04/05 08:50:58;;;;;;;;;;;;;;;19.15;63.97;100568.00;7400877;19;2197;-42
2023/04/05 08:53:26;;;;;;;;;;;;;;;18.87;64.38;100580.41;7400798;19;1044;-42
2023/04/05 08:55:57;;;;;;;;;;;;;;;18.76;65.14;100583.16;7400310;19;1941;-42
2023/04/05 08:58:26;;;;;;;;;;;;;;;19.16;63.81;100574.19;7400501;19;1587;-42
2023/04/05 09:00:59;;;;;;;;;;;;;;;19.63;62.51;100568.94;7401476;19;991;-42
2023/04/05 09:03:30;;;;;;;;;;;;;;;19.45;63.13;100584.91;7401668;19;1043;-42
2023/04/05 09:06:00;;;;;;;;;;;;;;;19.01;64.49;100589.88;7400265;19;1798;-42
2023/04/05 09:08:29;;;;;;;;;;;;;;;18.77;64.86;100596.44;7401079;19;2059;-42
2023/04/05 09:10:57;;;;;;;;;;;;;;;18.84;64.45;100586.91;7399260;19;1980;-42
2023/04/05 09:13:25;;;;;;;;;;;;;;;19.38;63.46;100598.06;7396702;19;1014;-42
2023/04/05 09:15:55;;;;;;;;;;;;;;;19.43;63.00;100593.09;7399569;19;1857;-42
2023/04/05 09:18:26;;;;;;;;;;;;;;;19.02;63.89;100578.16;7400169;19;2172;-42
2023/04/05 09:20:57;;;;;;;;;;;;;;;18.83;64.78;100605.78;7400692;19;2028;-42
2023/04/05 09:23:26;;;;;;;;;;;;;;;18.80;64.79;100598.00;7399355;19;2115;-42
2023/04/05 09:25:54;;;;;;;;;;;;;;;19.20;63.79;100589.88;7398536;19;1928;-42
2023/04/05 09:28:22;;;;;;;;;;;;;;;19.59;62.27;100587.16;7399663;19;1017;-42
2023/04/05 09:30:51;;;;;;;;;;;;;;;19.25;63.49;100594.81;7402349;19;2107;-42
2023/04/05 09:33:21;;;;;;;;;;;;;;;18.86;64.85;100600.13;7407338;19;1980;-42
2023/04/05 09:35:54;;;;;;;;;;;;;;;18.67;64.96;100591.03;7406773;19;1908;-42
2023/04/05 09:38:43;;;;;;;;;;;;;;;19.00;63.99;100589.03;7404378;19;1903;-42
2023/04/05 09:41:11;;;;;;;;;;;;;;;19.51;62.60;100589.72;7406707;19;1903;-42
2023/04/05 09:43:40;;;;;;;;;;;;;;;19.25;63.31;100589.44;7405396;19;1093;-42
2023/04/05 09:46:28;;;;;;;;;;;;;;;18.86;64.56;100600.13;7405777;19;1733;-42
2023/04/05 09:48:57;;;;;;;;;;;;;;;18.69;64.90;100607.81;7405665;19;1664;-42
2023/04/05 09:51:33;;;;;;;;;;;;;;;19.03;63.87;100599.44;7404061;19;1121;-43
2023/04/05 09:54:03;;;;;;;;;;;;;;;19.48;62.55;100588.16;7406831;19;1815;-42
2023/04/05 09:56:32;;;;;;;;;;;;;;;19.21;63.26;100588.03;7401647;19;1840;-42
2023/04/05 09:59:03;;;;;;;;;;;;;;;18.89;64.63;100583.78;7405812;19;1919;-42
2023/04/05 10:01:32;;;;;;;;;;;;;;;18.76;64.86;100584.03;7402767;19;2131;-42
2023/04/05 10:04:01;;;;;;;;;;;;;;;19.04;63.62;100550.25;7402623;19;1133;-42
2023/04/05 10:06:42;;;;;;;;;;;;;;;19.56;62.39;100559.78;7403367;19;974;-42
2023/04/05 10:09:13;;;;;;;;;;;;;;;19.39;62.87;100548.78;7406622;19;1926;-42
2023/04/05 10:11:43;;;;;;;;;;;;;;;18.99;64.25;100547.13;7406515;19;2100;-42
2023/04/05 10:14:14;;;;;;;;;;;;;;;18.76;64.61;100562.59;7402861;19;1950;-44
2023/04/05 10:16:46;;;;;;;;;;;;;;;18.99;64.00;100565.03;7401562;19;1844;-42
2023/04/05 10:19:18;;;;;;;;;;;;;;;19.44;63.06;100557.25;7406812;19;1142;-42
2023/04/05 10:21:49;;;;;;;;;;;;;;;19.79;61.89;100566.53;7406462;19;1015;-42
2023/04/05 10:24:23;;;;;;;;;;;;;;;19.51;62.49;100552.16;7405431;19;1890;-42
2023/04/05 10:26:56;;;;;;;;;;;;;;;19.06;64.09;100558.97;7406040;19;2095;-42
2023/04/05 10:29:31;;;;;;;;;;;;;;;18.87;64.28;100564.31;7405146;19;1904;-42
2023/04/05 10:32:03;;;;;;;;;;;;;;;19.03;63.80;100561.09;7402853;19;1906;-42
2023/04/05 10:34:35;;;;;;;;;;;;;;;19.44;62.85;100551.06;7406477;19;1489;-42
2023/04/05 10:37:06;;;;;;;;;;;;;;;19.70;61.90;100553.97;7401408;19;1853;-42
2023/04/05 10:39:36;;;;;;;;;;;;;;;19.78;61.84;100556.78;7403555;19;2030;-42
2023/04/05 10:42:09;;;;;;;;;;;;;;;19.34;63.09;100564.47;7400313;19;1787;-42
2023/04/05 10:44:38;;;;;;;;;;;;;;;18.97;64.33;100565.19;7403141;19;1042;-42
2023/04/05 10:47:07;;;;;;;;;;;;;;;18.84;64.62;100567.28;7403678;19;1742;-42
2023/04/05 10:49:40;;;;;;;;;;;;;;;19.32;63.29;100568.25;7405787;19;1023;-42
2023/04/05 10:52:11;;;;;;;;;;;;;;;19.66;62.28;100556.09;7405480;19;950;-42
2023/04/05 10:54:40;;;;;;;;;;;;;;;19.81;61.62;100561.84;7405139;19;1952;-42
2023/04/05 10:57:09;;;;;;;;;;;;;;;19.53;63.13;100570.78;7403480;19;2121;-42
2023/04/05 10:59:43;;;;;;;;;;;;;;;19.11;63.94;100569.28;7404039;19;2194;-42
2023/04/05 11:02:12;;;;;;;;;;;;;;;18.89;64.32;100551.63;7404977;19;1747;-42
2023/04/05 11:04:41;;;;;;;;;;;;;;;19.22;63.64;100562.94;7402688;19;1869;-42
2023/04/05 11:07:16;;;;;;;;;;;;;;;19.63;62.05;100567.09;7403331;19;1816;-42
2023/04/05 11:09:55;;;;;;;;;;;;;;;19.68;61.32;100583.63;7402676;19;1658;-42
2023/04/05 11:12:54;;;;;;;;;;;;;;;19.55;61.52;100568.81;7401891;19;971;-43
2023/04/05 11:15:41;;;;;;;;;;;;;;;19.16;63.18;100567.03;7402034;19;1760;-42
2023/04/05 11:18:22;;;;;;;;;;;;;;;18.87;64.01;100583.09;7400340;19;1852;-43
2023/04/05 11:20:54;;;;;;;;;;;;;;;19.06;64.14;100569.69;7402556;19;1792;-42
2023/04/05 11:23:24;;;;;;;;;;;;;;;19.59;62.33;100581.78;7404154;19;1177;-42
2023/04/05 11:25:56;;;;;;;;;;;;;;;19.45;63.28;100569.66;7402673;19;1796;-43
2023/04/05 11:28:25;;;;;;;;;;;;;;;19.12;63.97;100570.13;7402289;19;2157;-42
2023/04/05 11:30:55;;;;;;;;;;;;;;;18.90;64.66;100574.78;7402926;19;2204;-42
2023/04/05 11:33:58;;;;;;;;;;;;;;;19.25;64.09;100586.75;7402367;19;2188;-42
2023/04/05 11:36:33;;;;;;;;;;;;;;;19.72;62.30;100576.16;7403190;19;2074;-42
2023/04/05 11:39:17;;;;;;;;;;;;;;;19.60;62.38;100566.56;7403095;19;2001;-43
2023/04/05 11:41:45;;;;;;;;;;;;;;;19.15;63.52;100570.69;7395954;19;2176;-42
2023/04/05 11:44:15;;;;;;;;;;;;;;;18.85;64.07;100575.19;7401448;19;1632;-42
2023/04/05 11:46:43;;;;;;;;;;;;;;;18.82;64.25;100563.88;7398366;19;1755;-42
2023/04/05 11:49:15;;;;;;;;;;;;;;;19.45;62.90;100563.47;7401704;19;1527;-43
2023/04/05 11:51:47;;;;;;;;;;;;;;;19.65;62.03;100569.63;7401415;19;3188;-43
2023/04/05 11:54:15;;;;;;;;;;;;;;;19.51;62.73;100580.81;7398214;19;1826;-43
2023/04/05 11:56:44;;;;;;;;;;;;;;;19.23;63.69;100572.66;7399823;19;2138;-42
2023/04/05 11:59:15;;;;;;;;;;;;;;;19.01;64.51;100588.03;7400602;19;1714;-43
2023/04/05 12:01:46;;;;;;;;;;;;;;;18.93;65.27;100579.00;7400566;19;1617;-43
2023/04/05 12:04:19;;;;;;;;;;;;;;;19.45;63.43;100571.50;7400602;19;1580;-43
2023/04/05 12:06:47;;;;;;;;;;;;;;;19.68;62.57;100567.53;7399583;19;1455;-42
2023/04/05 12:09:16;;;;;;;;;;;;;;;19.74;62.68;100570.66;7401509;19;1774;-42
2023/04/05 12:11:44;;;;;;;;;;;;;;;19.40;63.42;100574.63;7399993;19;1771;-43
2023/04/05 12:14:14;;;;;;;;;;;;;;;19.12;64.49;100575.47;7400605;19;1535;-43
2023/04/05 12:16:50;;;;;;;;;;;;;;;18.84;65.05;100586.03;7400160;19;1846;-43
2023/04/05 12:19:24;;;;;;;;;;;;;;;19.28;64.00;100578.47;7400564;19;1664;-43
2023/04/05 12:21:52;;;;;;;;;;;;;;;19.54;63.38;100569.81;7401320;19;1906;-43
2023/04/05 12:24:20;;;;;;;;;;;;;;;19.68;62.71;100583.63;7399544;19;2114;-43
2023/04/05 12:26:50;;;;;;;;;;;;;;;19.43;63.72;100568.97;7400912;19;1904;-43
2023/04/05 12:29:18;;;;;;;;;;;;;;;19.10;64.79;100574.78;7399290;19;2043;-43
2023/04/05 12:31:47;;;;;;;;;;;;;;;18.93;65.73;100595.09;7397715;19;1810;-42
2023/04/05 12:34:16;;;;;;;;;;;;;;;18.93;65.34;100579.84;7400113;19;1692;-42
2023/04/05 12:36:48;;;;;;;;;;;;;;;19.57;63.49;100580.25;7400914;19;1853;-42
2023/04/05 12:39:17;;;;;;;;;;;;;;;19.74;63.17;100584.91;7398665;19;1571;-42
2023/04/05 12:41:45;;;;;;;;;;;;;;;19.51;63.75;100583.50;7399251;19;1848;-42
2023/04/05 12:44:16;;;;;;;;;;;;;;;19.10;65.10;100572.09;7398846;19;1473;-43
2023/04/05 12:46:46;;;;;;;;;;;;;;;18.92;65.83;100586.22;7398204;19;1954;-43
2023/04/05 12:49:16;;;;;;;;;;;;;;;18.93;66.09;100582.53;7385483;19;1614;-43
2023/04/05 12:51:45;;;;;;;;;;;;;;;19.33;64.61;100584.22;7399767;19;1788;-43
2023/04/05 12:54:21;;;;;;;;;;;;;;;19.55;63.16;100587.59;7399177;19;1799;-42
2023/04/05 12:56:51;;;;;;;;;;;;;;;19.58;62.89;100574.75;7397108;19;1856;-43
2023/04/05 12:59:20;;;;;;;;;;;;;;;19.23;64.24;100578.03;7399975;19;1589;-42
2023/04/05 13:01:49;;;;;;;;;;;;;;;18.91;65.10;100591.69;7399112;19;1799;-42
2023/04/05 13:04:17;;;;;;;;;;;;;;;18.79;65.87;100582.91;7398609;19;1599;-42
2023/04/05 13:06:45;;;;;;;;;;;;;;;19.47;64.24;100578.41;7404208;19;1578;-42
2023/04/05 13:09:16;;;;;;;;;;;;;;;19.74;63.21;100571.50;7404398;19;2055;-43